createdAt,value
2022-12-01T00:01:21.344Z,39.83
2022-12-01T00:03:49.539Z,38.70
2022-12-01T00:06:19.128Z,38.93
2022-12-01T00:09:03.804Z,38.80
2022-12-01T00:11:31.710Z,39.67
2022-12-01T00:13:59.605Z,39.27
2022-12-01T00:16:27.520Z,41.63
2022-12-01T00:18:56.293Z,39.70
2022-12-01T00:21:25.703Z,39.70
2022-12-01T00:23:57.348Z,40.37
2022-12-01T00:26:26.281Z,38.73
2022-12-01T00:28:55.641Z,39.90
2022-12-01T00:31:24.153Z,38.90
2022-12-01T00:33:52.233Z,39.03
2022-12-01T00:36:20.370Z,39.27
2022-12-01T00:38:48.449Z,40.47
2022-12-01T00:41:18.158Z,37.57
2022-12-01T00:43:46.010Z,38.17
2022-12-01T00:46:13.889Z,39.60
2022-12-01T00:48:41.721Z,36.50
2022-12-01T00:51:09.589Z,39.27
2022-12-01T00:53:37.423Z,37.80
2022-12-01T00:56:05.588Z,37.97
2022-12-01T00:58:34.766Z,38.50
2022-12-01T01:01:03.018Z,38.27
2022-12-01T01:03:31.526Z,38.37
2022-12-01T01:06:05.873Z,34.03
2022-12-01T01:08:33.762Z,38.97
2022-12-01T01:11:02.222Z,36.10
2022-12-01T01:13:30.333Z,35.57
2022-12-01T01:16:00.703Z,35.73
2022-12-01T01:18:29.040Z,36.87
2022-12-01T01:20:58.443Z,31.60
2022-12-01T01:23:26.682Z,37.30
2022-12-01T01:25:54.495Z,41.60
2022-12-01T01:28:22.274Z,36.30
2022-12-01T01:30:50.091Z,34.00
2022-12-01T01:33:19.313Z,34.87
2022-12-01T01:35:47.122Z,39.00
2022-12-01T01:38:14.993Z,37.20
2022-12-01T01:40:45.169Z,38.40
2022-12-01T01:43:16.830Z,35.00
2022-12-01T01:45:45.076Z,38.30
2022-12-01T01:48:15.257Z,41.77
2022-12-01T01:50:44.507Z,35.77
2022-12-01T01:53:15.546Z,34.50
2022-12-01T01:55:43.577Z,34.70
2022-12-01T01:58:12.010Z,38.13
2022-12-01T02:00:41.859Z,39.80
2022-12-01T02:03:13.857Z,36.80
2022-12-01T02:05:44.658Z,39.17
2022-12-01T02:08:14.054Z,34.13
2022-12-01T02:10:56.654Z,40.13
2022-12-01T02:13:34.623Z,42.47
2022-12-01T02:16:10.542Z,37.50
2022-12-01T02:18:48.431Z,37.00
2022-12-01T02:21:36.458Z,36.60
2022-12-01T02:24:33.390Z,37.07
2022-12-01T02:27:05.799Z,37.10
2022-12-01T02:30:03.382Z,38.43
2022-12-01T02:32:40.957Z,38.40
2022-12-01T02:35:15.590Z,37.47
2022-12-01T02:37:50.289Z,36.97
2022-12-01T02:40:25.275Z,40.33
2022-12-01T02:43:03.201Z,36.93
2022-12-01T02:45:40.670Z,36.33
2022-12-01T02:48:15.200Z,36.03
2022-12-01T02:50:44.862Z,38.23
2022-12-01T02:53:16.630Z,36.80
2022-12-01T02:55:49.407Z,36.70
2022-12-01T02:58:17.302Z,36.10
2022-12-01T03:01:08.544Z,35.13
2022-12-01T03:04:01.536Z,35.30
2022-12-01T03:06:41.706Z,35.10
2022-12-01T03:09:18.859Z,38.30
2022-12-01T03:11:56.665Z,37.40
2022-12-01T03:14:35.263Z,37.37
2022-12-01T03:17:08.538Z,37.17
2022-12-01T03:19:42.893Z,35.43
2022-12-01T03:22:15.812Z,36.13
2022-12-01T03:24:47.511Z,34.57
2022-12-01T03:27:19.556Z,35.87
2022-12-01T03:29:51.053Z,32.80
2022-12-01T03:32:25.766Z,36.53
2022-12-01T03:34:59.050Z,35.97
2022-12-01T03:37:36.964Z,36.53
2022-12-01T03:40:08.993Z,39.83
2022-12-01T03:42:42.537Z,38.20
2022-12-01T03:45:16.306Z,37.10
2022-12-01T03:47:45.139Z,34.93
2022-12-01T03:50:16.307Z,35.47
2022-12-01T03:52:50.213Z,35.37
2022-12-01T03:55:23.591Z,38.87
2022-12-01T03:57:57.134Z,36.10
2022-12-01T04:00:25.932Z,34.60
2022-12-01T04:02:56.551Z,37.97
2022-12-01T04:05:26.329Z,35.00
2022-12-01T04:07:54.621Z,35.50
2022-12-01T04:10:22.528Z,35.97
2022-12-01T04:12:49.554Z,38.00
2022-12-01T04:15:18.045Z,38.83
2022-12-01T04:17:45.927Z,37.50
2022-12-01T04:20:15.441Z,36.63
2022-12-01T04:22:45.258Z,34.07
2022-12-01T04:25:13.085Z,34.07
2022-12-01T04:27:40.890Z,36.33
2022-12-01T04:30:10.792Z,37.10
2022-12-01T04:32:40.055Z,36.97
2022-12-01T04:35:08.682Z,37.03
2022-12-01T04:37:36.889Z,37.83
2022-12-01T04:40:07.578Z,35.23
2022-12-01T04:42:35.432Z,38.80
2022-12-01T04:45:03.306Z,38.00
2022-12-01T04:47:31.133Z,37.43
2022-12-01T04:49:58.984Z,39.90
2022-12-01T04:52:29.461Z,38.23
2022-12-01T04:55:01.498Z,39.87
2022-12-01T04:57:30.708Z,40.97
2022-12-01T04:59:58.510Z,38.97
2022-12-01T05:02:26.463Z,41.93
2022-12-01T05:04:54.322Z,39.60
2022-12-01T05:07:22.162Z,41.27
2022-12-01T05:09:50.352Z,54.17
2022-12-01T05:12:18.335Z,43.10
2022-12-01T05:14:47.527Z,45.90
2022-12-01T05:17:15.332Z,40.57
2022-12-01T05:19:57.099Z,37.83
2022-12-01T05:22:56.875Z,42.30
2022-12-01T05:25:12.642Z,40.93
2022-12-01T05:27:40.446Z,43.60
2022-12-01T05:30:11.157Z,42.27
2022-12-01T05:32:38.934Z,40.80
2022-12-01T05:35:07.819Z,43.67
2022-12-01T05:37:35.679Z,41.10
2022-12-01T05:40:03.537Z,39.27
2022-12-01T05:42:31.354Z,40.77
2022-12-01T05:44:59.142Z,44.33
2022-12-01T05:47:28.292Z,42.13
2022-12-01T05:49:58.531Z,38.20
2022-12-01T05:52:30.091Z,43.17
2022-12-01T05:54:57.906Z,39.20
2022-12-01T05:57:25.675Z,39.90
2022-12-01T05:59:53.552Z,44.30
2022-12-01T06:02:21.713Z,43.10
2022-12-01T06:04:50.970Z,42.00
2022-12-01T06:07:18.785Z,40.83
2022-12-01T06:09:46.886Z,44.33
2022-12-01T06:12:16.017Z,40.43
2022-12-01T06:14:43.877Z,43.63
2022-12-01T06:17:11.731Z,40.50
2022-12-01T06:19:39.616Z,40.47
2022-12-01T06:22:08.729Z,39.90
2022-12-01T06:24:36.732Z,41.50
2022-12-01T06:27:04.676Z,41.30
2022-12-01T06:29:32.501Z,38.40
2022-12-01T06:32:00.339Z,41.17
2022-12-01T06:34:28.265Z,42.87
2022-12-01T06:36:56.103Z,37.20
2022-12-01T06:39:25.254Z,42.60
2022-12-01T06:41:53.056Z,41.03
2022-12-01T06:44:20.858Z,38.93
2022-12-01T06:46:52.658Z,41.70
2022-12-01T06:49:21.065Z,37.70
2022-12-01T06:51:48.995Z,40.50
2022-12-01T06:54:17.829Z,40.50
2022-12-01T06:56:46.978Z,40.40
2022-12-01T06:59:15.196Z,40.33
2022-12-01T07:01:43.280Z,40.07
2022-12-01T07:04:11.310Z,39.40
2022-12-01T07:06:39.225Z,41.00
2022-12-01T07:09:07.033Z,38.67
2022-12-01T07:11:36.435Z,40.90
2022-12-01T07:14:05.593Z,40.53
2022-12-01T07:16:33.463Z,40.37
2022-12-01T07:19:01.486Z,40.90
2022-12-01T07:21:29.307Z,38.60
2022-12-01T07:23:57.149Z,40.77
2022-12-01T07:26:24.977Z,39.80
2022-12-01T07:28:54.252Z,40.57
2022-12-01T07:31:23.516Z,41.93
2022-12-01T07:33:51.392Z,38.60
2022-12-01T07:36:19.235Z,43.47
2022-12-01T07:38:47.055Z,39.83
2022-12-01T07:41:16.628Z,39.93
2022-12-01T07:43:44.553Z,39.10
2022-12-01T07:46:20.617Z,39.40
2022-12-01T07:48:51.943Z,37.07
2022-12-01T07:51:20.485Z,37.83
2022-12-01T07:53:50.203Z,42.37
2022-12-01T07:56:19.280Z,40.53
2022-12-01T07:58:47.206Z,38.27
2022-12-01T08:01:16.734Z,39.37
2022-12-01T08:03:45.019Z,39.07
2022-12-01T08:06:14.306Z,37.27
2022-12-01T08:08:42.810Z,36.83
2022-12-01T08:11:13.865Z,37.13
2022-12-01T08:13:42.879Z,39.10
2022-12-01T08:16:14.434Z,39.10
2022-12-01T08:18:43.470Z,39.60
2022-12-01T08:21:13.440Z,39.40
2022-12-01T08:23:43.277Z,37.73
2022-12-01T08:26:13.921Z,37.23
2022-12-01T08:28:42.160Z,38.07
2022-12-01T08:31:11.810Z,42.10
2022-12-01T08:33:39.850Z,39.33
2022-12-01T08:36:08.328Z,39.00
2022-12-01T08:38:36.181Z,40.13
2022-12-01T08:41:07.268Z,38.00
2022-12-01T08:43:57.208Z,41.37
2022-12-01T08:46:27.789Z,40.60
2022-12-01T08:48:57.361Z,39.03
2022-12-01T08:51:25.747Z,37.53
2022-12-01T08:53:53.629Z,38.47
2022-12-01T08:56:25.549Z,38.73
2022-12-01T08:58:54.568Z,39.90
2022-12-01T09:01:22.814Z,39.77
2022-12-01T09:04:04.899Z,36.00
2022-12-01T09:06:34.201Z,36.00
2022-12-01T09:09:02.414Z,34.00
2022-12-01T09:11:31.585Z,36.10
2022-12-01T09:14:00.613Z,36.50
2022-12-01T09:16:28.637Z,37.10
2022-12-01T09:18:56.686Z,34.27
2022-12-01T09:21:26.884Z,34.30
2022-12-01T09:23:54.993Z,34.40
2022-12-01T09:26:22.958Z,36.77
2022-12-01T09:28:55.351Z,36.00
2022-12-01T09:31:24.357Z,36.43
2022-12-01T09:33:56.530Z,37.27
2022-12-01T09:36:24.461Z,40.13
2022-12-01T09:38:52.404Z,38.33
2022-12-01T09:41:23.826Z,35.00
2022-12-01T09:43:59.288Z,34.80
2022-12-01T09:46:33.658Z,35.20
2022-12-01T09:49:03.517Z,36.93
2022-12-01T09:51:36.014Z,35.27
2022-12-01T09:54:04.554Z,37.80
2022-12-01T09:56:34.514Z,35.37
2022-12-01T09:59:07.131Z,38.50
2022-12-01T10:01:38.404Z,34.90
2022-12-01T10:04:12.854Z,39.37
2022-12-01T10:06:45.554Z,35.40
2022-12-01T10:09:22.289Z,35.00
2022-12-01T10:11:55.341Z,34.67
2022-12-01T10:14:24.612Z,35.37
2022-12-01T10:17:04.535Z,36.43
2022-12-01T10:19:40.590Z,34.53
2022-12-01T10:22:21.763Z,37.43
2022-12-01T10:24:56.199Z,34.77
2022-12-01T10:27:36.297Z,33.27
2022-12-01T10:30:10.439Z,35.70
2022-12-01T10:32:50.223Z,35.43
2022-12-01T10:35:20.099Z,31.60
2022-12-01T10:37:56.258Z,35.60
2022-12-01T10:40:24.693Z,34.67
2022-12-01T10:42:52.794Z,34.20
2022-12-01T10:45:24.695Z,35.90
2022-12-01T10:48:15.308Z,37.50
2022-12-01T10:50:44.895Z,37.13
2022-12-01T10:53:29.046Z,35.13
2022-12-01T10:56:06.119Z,34.60
2022-12-01T10:58:41.778Z,33.27
2022-12-01T11:01:19.037Z,33.63
2022-12-01T11:03:52.601Z,33.33
2022-12-01T11:06:26.738Z,36.00
2022-12-01T11:08:57.449Z,34.77
2022-12-01T11:11:32.072Z,37.20
2022-12-01T11:14:02.557Z,36.60
2022-12-01T11:16:39.759Z,37.37
2022-12-01T11:19:26.633Z,36.97
2022-12-01T11:21:57.180Z,35.70
2022-12-01T11:24:41.438Z,33.80
2022-12-01T11:27:17.273Z,32.83
2022-12-01T11:29:47.374Z,31.67
2022-12-01T11:32:23.305Z,31.03
2022-12-01T11:34:55.640Z,33.37
2022-12-01T11:37:26.125Z,32.70
2022-12-01T11:39:54.202Z,45.83
2022-12-01T11:42:26.590Z,34.47
2022-12-01T11:44:57.705Z,34.10
2022-12-01T11:47:28.566Z,33.20
2022-12-01T11:49:57.923Z,38.17
2022-12-01T11:52:30.035Z,36.17
2022-12-01T11:55:04.292Z,32.57
2022-12-01T11:57:36.183Z,33.23
2022-12-01T12:00:13.537Z,28.80
2022-12-01T12:02:52.675Z,32.27
2022-12-01T12:05:57.685Z,30.10
2022-12-01T12:08:45.933Z,28.87
2022-12-01T12:11:19.300Z,29.30
2022-12-01T12:14:09.862Z,33.73
2022-12-01T12:16:54.150Z,30.80
2022-12-01T12:20:06.211Z,27.07
2022-12-01T12:22:41.675Z,32.30
2022-12-01T12:25:25.783Z,28.50
2022-12-01T12:28:04.456Z,30.63
2022-12-01T12:30:36.631Z,32.20
2022-12-01T12:33:27.867Z,31.50
2022-12-01T12:36:08.019Z,33.07
2022-12-01T12:38:49.273Z,30.17
2022-12-01T12:41:24.489Z,30.20
2022-12-01T12:44:04.473Z,31.73
2022-12-01T12:46:41.481Z,30.47
2022-12-01T12:49:24.940Z,31.93
2022-12-01T12:52:07.868Z,34.13
2022-12-01T12:54:44.208Z,29.30
2022-12-01T12:57:25.772Z,31.13
2022-12-01T12:59:59.189Z,29.27
2022-12-01T13:02:34.512Z,30.90
2022-12-01T13:05:07.753Z,29.93
2022-12-01T13:07:41.974Z,30.47
2022-12-01T13:10:20.461Z,28.67
2022-12-01T13:12:56.099Z,31.07
2022-12-01T13:15:23.960Z,33.07
2022-12-01T13:17:58.420Z,34.40
2022-12-01T13:20:29.143Z,29.57
2022-12-01T13:23:00.404Z,32.73
2022-12-01T13:25:33.335Z,29.20
2022-12-01T13:28:03.523Z,28.43
2022-12-01T13:30:31.366Z,30.23
2022-12-01T13:33:02.012Z,33.53
2022-12-01T13:35:34.254Z,30.43
2022-12-01T13:38:26.960Z,28.90
2022-12-01T13:41:23.757Z,31.97
2022-12-01T13:44:03.460Z,30.80
2022-12-01T13:46:34.358Z,27.87
2022-12-01T13:49:05.059Z,30.27
2022-12-01T13:52:02.667Z,31.27
2022-12-01T13:54:31.903Z,29.27
2022-12-01T13:57:02.718Z,28.20
2022-12-01T13:59:42.890Z,27.47
2022-12-01T14:02:20.573Z,26.67
2022-12-01T14:04:49.430Z,27.17
2022-12-01T14:07:37.442Z,30.00
2022-12-01T14:10:24.215Z,26.70
2022-12-01T14:12:53.700Z,26.30
2022-12-01T14:15:40.196Z,27.17
2022-12-01T14:18:25.672Z,25.10
2022-12-01T14:20:53.718Z,27.20
2022-12-01T14:23:28.905Z,28.30
2022-12-01T14:26:11.612Z,26.80
2022-12-01T14:29:19.653Z,26.97
2022-12-01T14:32:24.384Z,24.50
2022-12-01T14:34:59.187Z,25.80
2022-12-01T14:37:34.838Z,28.97
2022-12-01T14:40:08.777Z,27.63
2022-12-01T14:42:58.121Z,26.90
2022-12-01T14:45:30.003Z,25.77
2022-12-01T14:48:02.839Z,24.40
2022-12-01T14:50:43.556Z,24.57
2022-12-01T14:53:22.488Z,29.43
2022-12-01T14:55:56.137Z,26.00
2022-12-01T14:58:27.667Z,24.57
2022-12-01T15:01:01.511Z,26.57
2022-12-01T15:03:33.637Z,26.37
2022-12-01T15:06:01.683Z,27.33
2022-12-01T15:08:41.295Z,25.83
2022-12-01T15:11:21.708Z,24.77
2022-12-01T15:13:52.762Z,26.03
2022-12-01T15:16:23.023Z,25.47
2022-12-01T15:18:51.397Z,24.93
2022-12-01T15:21:21.292Z,28.03
2022-12-01T15:23:57.806Z,24.60
2022-12-01T15:26:29.352Z,28.90
2022-12-01T15:29:16.292Z,25.00
2022-12-01T15:31:46.308Z,26.03
2022-12-01T15:34:16.828Z,25.73
2022-12-01T15:36:45.799Z,25.77
2022-12-01T15:39:17.154Z,23.50
2022-12-01T15:41:46.602Z,27.10
2022-12-01T15:44:23.442Z,25.00
2022-12-01T15:46:51.269Z,26.43
2022-12-01T15:49:21.024Z,25.33
2022-12-01T15:51:50.882Z,26.10
2022-12-01T15:54:22.260Z,26.90
2022-12-01T15:56:53.934Z,26.93
2022-12-01T15:59:36.752Z,27.87
2022-12-01T16:02:16.665Z,24.77
2022-12-01T16:04:48.219Z,26.07
2022-12-01T16:07:16.584Z,28.90
2022-12-01T16:09:55.987Z,29.40
2022-12-01T16:12:25.440Z,27.00
2022-12-01T16:14:58.143Z,28.50
2022-12-01T16:17:27.416Z,25.93
2022-12-01T16:20:18.979Z,22.60
2022-12-01T16:22:48.541Z,25.43
2022-12-01T16:25:20.995Z,25.07
2022-12-01T16:27:56.854Z,26.07
2022-12-01T16:30:30.029Z,27.10
2022-12-01T16:33:03.577Z,27.40
2022-12-01T16:35:33.795Z,27.43
2022-12-01T16:38:05.514Z,28.90
2022-12-01T16:40:33.804Z,26.60
2022-12-01T16:43:01.599Z,29.47
2022-12-01T16:45:30.763Z,29.40
2022-12-01T16:48:04.841Z,27.53
2022-12-01T16:50:37.226Z,30.00
2022-12-01T16:53:05.118Z,30.87
2022-12-01T16:55:38.783Z,31.73
2022-12-01T16:58:06.793Z,31.47
2022-12-01T17:00:38.873Z,31.40
2022-12-01T17:03:07.248Z,29.43
2022-12-01T17:05:35.499Z,30.83
2022-12-01T17:08:03.414Z,30.20
2022-12-01T17:10:34.135Z,32.90
2022-12-01T17:13:01.925Z,34.00
2022-12-01T17:15:29.777Z,31.20
2022-12-01T17:17:59.056Z,34.70
2022-12-01T17:20:27.126Z,35.90
2022-12-01T17:22:54.973Z,37.20
2022-12-01T17:25:22.763Z,37.90
2022-12-01T17:27:50.610Z,34.20
2022-12-01T17:30:18.610Z,36.90
2022-12-01T17:32:47.210Z,36.93
2022-12-01T17:35:16.798Z,32.73
2022-12-01T17:37:45.046Z,33.90
2022-12-01T17:40:14.797Z,35.50
2022-12-01T17:42:48.593Z,32.80
2022-12-01T17:45:19.246Z,35.10
2022-12-01T17:47:47.054Z,35.20
2022-12-01T17:50:16.550Z,36.10
2022-12-01T17:52:46.380Z,35.47
2022-12-01T17:55:14.229Z,37.60
2022-12-01T17:57:42.036Z,43.90
2022-12-01T18:00:11.379Z,36.07
2022-12-01T18:02:39.245Z,32.17
2022-12-01T18:05:08.065Z,38.70
2022-12-01T18:07:37.333Z,34.10
2022-12-01T18:10:05.621Z,36.73
2022-12-01T18:12:33.492Z,35.53
2022-12-01T18:15:01.305Z,35.47
2022-12-01T18:17:29.101Z,35.30
2022-12-01T18:19:56.953Z,38.53
2022-12-01T18:22:24.766Z,35.90
2022-12-01T18:24:53.954Z,45.88
2022-12-01T18:27:21.733Z,39.23
2022-12-01T18:29:49.590Z,38.27
2022-12-01T18:32:17.617Z,34.87
2022-12-01T18:34:45.516Z,37.73
2022-12-01T18:37:13.312Z,36.57
2022-12-01T18:39:41.162Z,35.10
2022-12-01T18:42:10.292Z,36.60
2022-12-01T18:44:38.789Z,35.50
2022-12-01T18:47:07.012Z,31.73
2022-12-01T18:49:34.896Z,33.50
2022-12-01T18:52:03.664Z,33.47
2022-12-01T18:54:31.713Z,32.33
2022-12-01T18:57:00.199Z,34.00
2022-12-01T18:59:29.635Z,32.40
2022-12-01T19:01:57.505Z,32.33
2022-12-01T19:04:25.421Z,34.33
2022-12-01T19:06:53.368Z,34.17
2022-12-01T19:09:21.206Z,30.83
2022-12-01T19:11:49.146Z,34.10
2022-12-01T19:14:19.626Z,33.80
2022-12-01T19:16:48.893Z,33.00
2022-12-01T19:19:16.878Z,31.63
2022-12-01T19:21:45.319Z,31.33
2022-12-01T19:24:13.742Z,33.13
2022-12-01T19:26:41.546Z,34.13
2022-12-01T19:29:09.391Z,34.80
2022-12-01T19:31:37.470Z,30.50
2022-12-01T19:34:07.376Z,30.57
2022-12-01T19:36:35.241Z,32.73
2022-12-01T19:39:07.236Z,32.20
2022-12-01T19:41:35.593Z,28.07
2022-12-01T19:44:03.694Z,31.10
2022-12-01T19:46:31.502Z,34.73
2022-12-01T19:49:01.443Z,28.60
2022-12-01T19:51:34.858Z,26.00
2022-12-01T19:54:03.172Z,28.13
2022-12-01T19:56:31.435Z,28.83
2022-12-01T19:59:00.178Z,26.70
2022-12-01T20:01:28.423Z,27.40
2022-12-01T20:03:56.562Z,28.90
2022-12-01T20:06:26.397Z,25.90
2022-12-01T20:08:57.110Z,27.40
2022-12-01T20:11:25.397Z,24.70
2022-12-01T20:13:53.426Z,25.23
2022-12-01T20:16:22.831Z,26.10
2022-12-01T20:18:51.836Z,24.60
2022-12-01T20:21:22.426Z,23.07
2022-12-01T20:23:55.288Z,27.37
2022-12-01T20:26:30.222Z,25.87
2022-12-01T20:29:01.954Z,22.90
2022-12-01T20:31:32.205Z,23.50
2022-12-01T20:34:02.277Z,23.60
2022-12-01T20:36:30.801Z,21.97
2022-12-01T20:38:58.613Z,24.00
2022-12-01T20:41:27.764Z,24.43
2022-12-01T20:43:55.567Z,23.90
2022-12-01T20:46:24.010Z,24.63
2022-12-01T20:48:52.067Z,23.53
2022-12-01T20:51:20.213Z,23.80
2022-12-01T20:54:12.227Z,24.77
2022-12-01T20:56:37.206Z,23.80
2022-12-01T20:59:05.250Z,29.53
2022-12-01T21:01:33.203Z,28.60
2022-12-01T21:04:01.116Z,27.20
2022-12-01T21:06:29.734Z,27.80
2022-12-01T21:08:57.582Z,28.40
2022-12-01T21:11:41.172Z,30.37
2022-12-01T21:14:16.981Z,28.77
2022-12-01T21:16:48.149Z,30.37
2022-12-01T21:19:20.447Z,26.67
2022-12-01T21:21:48.280Z,28.87
2022-12-01T21:24:19.467Z,30.03
2022-12-01T21:26:49.237Z,29.03
2022-12-01T21:29:22.252Z,29.40
2022-12-01T21:31:51.878Z,27.27
2022-12-01T21:34:22.425Z,31.67
2022-12-01T21:36:52.708Z,31.60
2022-12-01T21:39:23.113Z,27.50
2022-12-01T21:41:53.820Z,26.27
2022-12-01T21:44:27.566Z,27.37
2022-12-01T21:47:01.555Z,28.53
2022-12-01T21:49:35.978Z,29.60
2022-12-01T21:52:13.109Z,26.97
2022-12-01T21:54:41.105Z,27.50
2022-12-01T21:57:27.292Z,26.33
2022-12-01T22:00:05.959Z,29.10
2022-12-01T22:02:47.969Z,29.10
2022-12-01T22:05:27.697Z,29.30
2022-12-01T22:08:01.012Z,29.57
2022-12-01T22:10:52.170Z,31.37
2022-12-01T22:13:20.445Z,29.80
2022-12-01T22:15:49.968Z,30.37
2022-12-01T22:18:23.479Z,29.33
2022-12-01T22:20:51.852Z,29.57
2022-12-01T22:23:20.657Z,32.43
2022-12-01T22:25:49.202Z,31.53
2022-12-01T22:28:21.960Z,30.53
2022-12-01T22:30:51.315Z,30.30
2022-12-01T22:33:22.101Z,30.73
2022-12-01T22:35:52.596Z,30.23
2022-12-01T22:38:33.250Z,31.50
2022-12-01T22:41:04.815Z,30.10
2022-12-01T22:43:42.831Z,29.73
2022-12-01T22:46:33.264Z,30.77
2022-12-01T22:49:13.578Z,32.97
2022-12-01T22:51:44.524Z,32.93
2022-12-01T22:54:30.484Z,32.47
2022-12-01T22:57:19.362Z,34.50
2022-12-01T22:59:47.939Z,31.60
2022-12-01T23:02:21.964Z,29.90
2022-12-01T23:04:52.430Z,34.70
2022-12-01T23:07:32.868Z,32.40
2022-12-01T23:10:06.603Z,34.17
2022-12-01T23:12:36.235Z,32.20
2022-12-01T23:15:17.533Z,31.83
2022-12-01T23:17:46.655Z,32.07
2022-12-01T23:20:29.189Z,31.80
2022-12-01T23:22:58.073Z,30.87
2022-12-01T23:25:27.316Z,33.03
2022-12-01T23:27:59.144Z,32.93
2022-12-01T23:30:27.026Z,32.13
2022-12-01T23:33:17.657Z,32.23
2022-12-01T23:35:48.875Z,32.30
2022-12-01T23:38:20.066Z,32.50
2022-12-01T23:40:48.748Z,31.00
2022-12-01T23:43:21.250Z,34.10
2022-12-01T23:45:51.886Z,31.20
2022-12-01T23:48:24.130Z,31.33
2022-12-01T23:50:53.857Z,30.53
2022-12-01T23:53:28.000Z,33.70
2022-12-01T23:55:56.440Z,33.23
2022-12-01T23:58:24.377Z,33.17
